createdAt,value
2019-04-05T00:00:09.645Z,52.90
2019-04-05T00:02:39.411Z,53.03
2019-04-05T00:05:09.372Z,57.33
2019-04-05T00:07:38.872Z,64.27
2019-04-05T00:10:09.582Z,64.53
2019-04-05T00:12:39.281Z,67.83
2019-04-05T00:15:15.450Z,74.07
2019-04-05T00:17:40.204Z,74.80
2019-04-05T00:20:09.993Z,75.13
2019-04-05T00:22:39.446Z,77.30
2019-04-05T00:25:09.059Z,80.97
2019-04-05T00:27:38.523Z,80.23
2019-04-05T00:30:08.389Z,79.57
2019-04-05T00:32:37.927Z,78.23
2019-04-05T00:35:08.011Z,79.93
2019-04-05T00:37:37.481Z,79.87
2019-04-05T00:40:09.165Z,77.07
2019-04-05T00:42:39.006Z,79.93
2019-04-05T00:45:08.624Z,77.83
2019-04-05T00:47:38.102Z,79.57
2019-04-05T00:50:07.937Z,81.00
2019-04-05T00:52:37.401Z,80.73
2019-04-05T00:55:07.215Z,81.40
2019-04-05T00:57:37.209Z,77.23
2019-04-05T01:00:07.332Z,79.47
2019-04-05T01:02:36.805Z,80.97
2019-04-05T01:05:07.787Z,80.67
2019-04-05T01:07:37.574Z,82.97
2019-04-05T01:10:07.495Z,78.07
2019-04-05T01:12:37.718Z,81.33
2019-04-05T01:15:09.888Z,80.43
2019-04-05T01:17:39.785Z,78.30
2019-04-05T01:20:10.139Z,77.43
2019-04-05T01:22:41.951Z,78.77
2019-04-05T01:25:12.456Z,76.73
2019-04-05T01:27:42.565Z,80.20
2019-04-05T01:30:14.612Z,79.47
2019-04-05T01:32:44.463Z,79.03
2019-04-05T01:35:14.398Z,78.90
2019-04-05T01:37:45.222Z,76.60
2019-04-05T01:40:15.411Z,78.07
2019-04-05T01:42:45.111Z,78.80
2019-04-05T01:45:14.811Z,78.73
2019-04-05T01:47:44.834Z,74.60
2019-04-05T01:50:14.622Z,77.77
2019-04-05T01:52:44.237Z,76.53
2019-04-05T01:55:13.941Z,74.80
2019-04-05T01:57:43.866Z,75.10
2019-04-05T02:00:14.109Z,77.37
2019-04-05T02:02:43.832Z,77.83
2019-04-05T02:05:13.446Z,75.47
2019-04-05T02:07:43.335Z,74.90
2019-04-05T02:10:13.662Z,74.63
2019-04-05T02:12:43.476Z,75.77
2019-04-05T02:15:21.796Z,75.00
2019-04-05T02:17:51.603Z,75.00
2019-04-05T02:20:21.439Z,75.57
2019-04-05T02:22:50.895Z,73.60
2019-04-05T02:25:20.439Z,74.53
2019-04-05T02:27:49.889Z,76.13
2019-04-05T02:30:19.654Z,76.40
2019-04-05T02:32:49.190Z,75.10
2019-04-05T02:35:19.555Z,75.30
2019-04-05T02:37:49.087Z,77.20
2019-04-05T02:40:18.953Z,77.33
2019-04-05T02:42:49.529Z,75.63
2019-04-05T02:45:21.004Z,74.10
2019-04-05T02:47:53.660Z,76.53
2019-04-05T02:50:25.234Z,76.77
2019-04-05T02:52:57.320Z,75.10
2019-04-05T02:55:27.999Z,76.47
2019-04-05T02:57:58.800Z,76.13
2019-04-05T03:00:29.229Z,77.63
2019-04-05T03:02:59.497Z,78.47
2019-04-05T03:05:28.978Z,75.00
2019-04-05T03:07:58.772Z,77.33
2019-04-05T03:10:46.457Z,79.17
2019-04-05T03:13:15.930Z,78.43
2019-04-05T03:15:45.881Z,74.70
2019-04-05T03:18:15.898Z,73.40
2019-04-05T03:20:45.560Z,73.53
2019-04-05T03:23:15.081Z,73.80
2019-04-05T03:25:48.173Z,73.03
2019-04-05T03:28:16.570Z,75.97
2019-04-05T03:30:46.255Z,72.63
2019-04-05T03:33:15.952Z,73.87
2019-04-05T03:35:45.830Z,74.27
2019-04-05T03:38:15.380Z,73.00
2019-04-05T03:40:44.840Z,76.63
2019-04-05T03:43:14.308Z,71.93
2019-04-05T03:45:43.941Z,74.60
2019-04-05T03:48:13.438Z,75.53
2019-04-05T03:50:45.136Z,72.10
2019-04-05T03:53:14.414Z,74.20
2019-04-05T03:55:44.277Z,73.93
2019-04-05T03:58:13.730Z,75.23
2019-04-05T04:00:43.224Z,73.47
2019-04-05T04:03:12.771Z,74.33
2019-04-05T04:05:42.226Z,71.53
2019-04-05T04:08:11.962Z,73.37
2019-04-05T04:10:41.436Z,71.07
2019-04-05T04:13:10.974Z,70.53
2019-04-05T04:15:40.487Z,72.57
2019-04-05T04:18:10.342Z,74.53
2019-04-05T04:20:50.889Z,73.07
2019-04-05T04:23:23.910Z,72.53
2019-04-05T04:25:54.367Z,74.63
2019-04-05T04:28:23.828Z,71.60
2019-04-05T04:30:53.756Z,72.57
2019-04-05T04:33:23.490Z,73.60
2019-04-05T04:35:53.604Z,76.47
2019-04-05T04:38:23.133Z,75.63
2019-04-05T04:40:52.620Z,74.83
2019-04-05T04:43:22.068Z,72.23
2019-04-05T04:45:51.909Z,74.13
2019-04-05T04:48:21.548Z,73.70
2019-04-05T04:50:51.249Z,72.73
2019-04-05T04:53:20.754Z,74.20
2019-04-05T04:55:50.493Z,74.10
2019-04-05T04:58:19.963Z,74.93
2019-04-05T05:00:49.737Z,71.87
2019-04-05T05:03:19.181Z,69.90
2019-04-05T05:05:48.916Z,69.63
2019-04-05T05:08:18.384Z,72.60
2019-04-05T05:10:48.459Z,75.63
2019-04-05T05:13:17.983Z,72.77
2019-04-05T05:15:47.548Z,74.63
2019-04-05T05:18:17.175Z,72.67
2019-04-05T05:20:46.673Z,72.27
2019-04-05T05:23:16.133Z,75.10
2019-04-05T05:25:47.020Z,73.17
2019-04-05T05:28:16.745Z,73.40
2019-04-05T05:30:46.377Z,71.20
2019-04-05T05:33:15.854Z,74.67
2019-04-05T05:35:45.401Z,73.47
2019-04-05T05:38:15.067Z,71.63
2019-04-05T05:40:44.525Z,71.63
2019-04-05T05:43:13.994Z,71.03
2019-04-05T05:45:43.473Z,71.07
2019-04-05T05:48:13.320Z,73.20
2019-04-05T05:50:42.974Z,73.97
2019-04-05T05:53:12.615Z,71.83
2019-04-05T05:55:42.378Z,71.57
2019-04-05T05:58:11.843Z,68.90
2019-04-05T06:00:41.304Z,69.83
2019-04-05T06:03:16.509Z,70.17
2019-04-05T06:05:44.898Z,70.97
2019-04-05T06:08:14.364Z,68.27
2019-04-05T06:10:43.817Z,70.07
2019-04-05T06:13:13.301Z,70.97
2019-04-05T06:15:42.774Z,70.23
2019-04-05T06:18:12.834Z,70.40
2019-04-05T06:20:42.759Z,70.93
2019-04-05T06:23:12.233Z,69.23
2019-04-05T06:25:41.714Z,67.30
2019-04-05T06:28:11.198Z,66.53
2019-04-05T06:30:40.725Z,68.90
2019-04-05T06:33:10.558Z,67.63
2019-04-05T06:35:40.372Z,66.83
2019-04-05T06:38:09.859Z,69.03
2019-04-05T06:40:41.286Z,65.07
2019-04-05T06:43:10.911Z,66.80
2019-04-05T06:45:40.974Z,67.27
2019-04-05T06:48:19.193Z,66.27
2019-04-05T06:50:41.709Z,62.80
2019-04-05T06:53:11.183Z,64.80
2019-04-05T06:55:40.924Z,64.00
2019-04-05T06:58:10.702Z,65.77
2019-04-05T07:00:56.094Z,68.47
2019-04-05T07:03:13.738Z,63.00
2019-04-05T07:05:43.278Z,66.40
2019-04-05T07:08:12.777Z,65.90
2019-04-05T07:10:45.073Z,66.17
2019-04-05T07:13:13.418Z,67.37
2019-04-05T07:15:42.885Z,66.50
2019-04-05T07:18:12.367Z,67.20
2019-04-05T07:20:41.819Z,67.50
2019-04-05T07:23:11.310Z,65.30
2019-04-05T07:25:40.778Z,69.73
2019-04-05T07:28:10.265Z,67.40
2019-04-05T07:30:39.725Z,64.97
2019-04-05T07:33:09.219Z,67.63
2019-04-05T07:35:38.679Z,65.33
2019-04-05T07:38:09.730Z,64.80
2019-04-05T07:40:39.384Z,66.87
2019-04-05T07:43:08.865Z,66.53
2019-04-05T07:45:38.322Z,69.07
2019-04-05T07:48:07.797Z,65.87
2019-04-05T07:50:37.258Z,64.33
2019-04-05T07:53:07.041Z,67.70
2019-04-05T07:55:36.502Z,66.60
2019-04-05T07:58:06.255Z,65.87
2019-04-05T08:00:48.416Z,66.23
2019-04-05T08:03:18.331Z,62.37
2019-04-05T08:05:48.649Z,62.07
2019-04-05T08:08:42.399Z,62.67
2019-04-05T08:11:12.260Z,62.77
2019-04-05T08:13:42.715Z,62.03
2019-04-05T08:16:12.178Z,63.55
2019-04-05T08:18:41.838Z,62.80
2019-04-05T08:21:11.280Z,61.68
2019-04-05T08:23:41.057Z,60.92
2019-04-05T08:26:10.781Z,59.88
2019-04-05T08:28:40.265Z,59.67
2019-04-05T08:31:11.046Z,63.73
2019-04-05T08:33:40.940Z,59.03
2019-04-05T08:36:10.400Z,55.38
2019-04-05T08:38:40.117Z,58.00
2019-04-05T08:41:09.627Z,57.45
2019-04-05T08:43:39.160Z,57.58
2019-04-05T08:46:08.640Z,57.45
2019-04-05T08:48:38.120Z,55.10
2019-04-05T08:51:07.658Z,53.30
2019-04-05T08:53:37.132Z,52.65
2019-04-05T08:56:06.589Z,51.77
2019-04-05T08:58:36.065Z,54.95
2019-04-05T09:01:05.602Z,54.58
2019-04-05T09:03:35.069Z,54.40
2019-04-05T09:06:04.589Z,54.42
2019-04-05T09:08:34.094Z,54.18
2019-04-05T09:11:03.536Z,54.75
2019-04-05T09:13:35.497Z,51.08
2019-04-05T09:16:05.284Z,56.60
2019-04-05T09:18:34.850Z,57.62
2019-04-05T09:21:04.305Z,57.53
2019-04-05T09:23:34.108Z,61.23
2019-04-05T09:26:03.742Z,58.10
2019-04-05T09:28:33.584Z,57.78
2019-04-05T09:31:03.050Z,54.40
2019-04-05T09:33:32.521Z,55.55
2019-04-05T09:36:01.984Z,52.27
2019-04-05T09:38:31.453Z,52.73
2019-04-05T09:41:00.906Z,53.35
2019-04-05T09:43:30.371Z,51.08
2019-04-05T09:45:59.829Z,50.48
2019-04-05T09:48:29.285Z,51.80
2019-04-05T09:50:58.927Z,52.53
2019-04-05T09:53:28.403Z,54.58
2019-04-05T09:55:58.057Z,53.10
2019-04-05T09:58:27.557Z,53.28
2019-04-05T10:00:57.018Z,53.15
2019-04-05T10:03:26.822Z,55.50
2019-04-05T10:05:56.308Z,56.83
2019-04-05T10:08:25.773Z,58.20
2019-04-05T10:11:07.657Z,52.20
2019-04-05T10:13:37.151Z,56.42
2019-04-05T10:16:06.612Z,57.15
2019-04-05T10:18:36.078Z,58.00
2019-04-05T10:21:05.780Z,55.52
2019-04-05T10:23:35.247Z,58.68
2019-04-05T10:26:04.814Z,57.08
2019-04-05T10:28:34.294Z,56.23
2019-04-05T10:31:03.813Z,52.45
2019-04-05T10:33:33.353Z,59.08
2019-04-05T10:36:02.806Z,53.20
2019-04-05T10:38:32.264Z,51.63
2019-04-05T10:41:01.712Z,54.75
2019-04-05T10:43:31.441Z,54.18
2019-04-05T10:46:00.883Z,51.40
2019-04-05T10:48:30.350Z,52.25
2019-04-05T10:50:59.802Z,49.23
2019-04-05T10:53:29.395Z,50.50
2019-04-05T10:55:58.856Z,51.25
2019-04-05T10:58:28.316Z,52.00
2019-04-05T11:00:57.938Z,49.23
2019-04-05T11:03:27.394Z,49.10
2019-04-05T11:05:57.256Z,50.60
2019-04-05T11:08:26.723Z,50.90
2019-04-05T11:10:56.185Z,48.10
2019-04-05T11:13:25.655Z,45.40
2019-04-05T11:15:55.119Z,43.33
2019-04-05T11:18:24.581Z,44.38
2019-04-05T11:20:54.025Z,46.90
2019-04-05T11:23:23.583Z,49.53
2019-04-05T11:25:53.040Z,47.33
2019-04-05T11:28:22.529Z,48.45
2019-04-05T11:30:52.337Z,48.78
2019-04-05T11:33:21.802Z,46.55
2019-04-05T11:35:51.545Z,47.27
2019-04-05T11:38:24.101Z,46.77
2019-04-05T11:40:52.759Z,46.53
2019-04-05T11:43:26.222Z,46.33
2019-04-05T11:45:55.563Z,48.38
2019-04-05T11:48:25.162Z,47.83
2019-04-05T11:50:54.657Z,46.60
2019-04-05T11:53:24.099Z,44.40
2019-04-05T11:55:53.566Z,47.08
2019-04-05T11:58:23.170Z,44.75
2019-04-05T12:01:00.053Z,44.05
2019-04-05T12:03:33.547Z,43.63
2019-04-05T12:06:03.021Z,44.70
2019-04-05T12:08:32.484Z,44.42
2019-04-05T12:11:02.026Z,45.05
2019-04-05T12:13:31.493Z,42.75
2019-04-05T12:16:00.941Z,45.80
2019-04-05T12:18:30.399Z,41.68
2019-04-05T12:21:00.755Z,43.60
2019-04-05T12:23:33.378Z,43.63
2019-04-05T12:26:04.742Z,45.45
2019-04-05T12:28:33.323Z,44.42
2019-04-05T12:31:03.397Z,43.90
2019-04-05T12:33:32.830Z,46.90
2019-04-05T12:36:02.299Z,43.95
2019-04-05T12:38:33.128Z,43.08
2019-04-05T12:41:04.505Z,43.10
2019-04-05T12:43:33.972Z,42.65
2019-04-05T12:46:04.211Z,44.60
2019-04-05T12:48:33.759Z,41.80
2019-04-05T12:51:05.475Z,44.40
2019-04-05T12:53:34.375Z,44.20
2019-04-05T12:56:04.719Z,44.23
2019-04-05T12:58:34.167Z,48.30
2019-04-05T13:01:03.889Z,44.65
2019-04-05T13:03:33.350Z,48.58
2019-04-05T13:06:02.903Z,47.30
2019-04-05T13:08:32.354Z,48.23
2019-04-05T13:11:02.377Z,48.65
2019-04-05T13:13:32.198Z,50.00
2019-04-05T13:16:01.664Z,48.23
2019-04-05T13:18:31.801Z,48.33
2019-04-05T13:21:13.995Z,51.35
2019-04-05T13:23:33.731Z,50.98
2019-04-05T13:26:03.663Z,49.95
2019-04-05T13:28:33.107Z,47.90
2019-04-05T13:31:02.918Z,49.70
2019-04-05T13:33:32.351Z,48.63
2019-04-05T13:36:01.814Z,46.92
2019-04-05T13:38:31.267Z,47.60
2019-04-05T13:41:01.655Z,46.95
2019-04-05T13:43:33.140Z,46.95
2019-04-05T13:46:02.609Z,50.50
2019-04-05T13:48:32.348Z,47.62
2019-04-05T13:51:01.834Z,46.10
2019-04-05T13:53:31.378Z,46.40
2019-04-05T13:56:01.163Z,44.20
2019-04-05T13:58:30.618Z,38.13
2019-04-05T14:01:00.363Z,42.70
2019-04-05T14:03:30.342Z,42.08
2019-04-05T14:05:59.849Z,40.55
2019-04-05T14:08:29.353Z,43.87
2019-04-05T14:11:00.397Z,46.50
2019-04-05T14:13:29.846Z,44.15
2019-04-05T14:15:59.352Z,41.60
2019-04-05T14:18:28.808Z,43.65
2019-04-05T14:20:58.335Z,42.73
2019-04-05T14:23:28.087Z,42.33
2019-04-05T14:25:59.976Z,41.00
2019-04-05T14:28:29.472Z,39.30
2019-04-05T14:31:02.257Z,37.42
2019-04-05T14:33:30.611Z,36.70
2019-04-05T14:36:00.077Z,35.90
2019-04-05T14:38:31.324Z,37.65
2019-04-05T14:41:01.021Z,35.45
2019-04-05T14:43:30.501Z,37.08
2019-04-05T14:46:02.667Z,35.20
2019-04-05T14:48:31.991Z,34.40
2019-04-05T14:51:01.657Z,33.10
2019-04-05T14:53:32.371Z,32.00
2019-04-05T14:56:02.577Z,33.15
2019-04-05T14:58:32.056Z,34.13
2019-04-05T15:01:01.524Z,32.40
2019-04-05T15:03:30.992Z,32.73
2019-04-05T15:06:00.470Z,32.23
2019-04-05T15:08:30.250Z,33.30
2019-04-05T15:10:59.744Z,30.48
2019-04-05T15:13:29.308Z,30.15
2019-04-05T15:15:58.830Z,30.88
2019-04-05T15:18:28.284Z,30.60
2019-04-05T15:20:57.867Z,30.88
2019-04-05T15:23:27.427Z,29.90
2019-04-05T15:25:56.952Z,28.42
2019-04-05T15:28:26.427Z,29.67
2019-04-05T15:30:56.598Z,27.13
2019-04-05T15:33:27.861Z,29.57
2019-04-05T15:36:02.144Z,30.77
2019-04-05T15:38:31.848Z,30.30
2019-04-05T15:41:00.605Z,31.23
2019-04-05T15:43:30.066Z,30.35
2019-04-05T15:45:59.810Z,30.50
2019-04-05T15:48:29.727Z,30.92
2019-04-05T15:50:59.473Z,30.75
2019-04-05T15:53:31.875Z,28.42
2019-04-05T15:56:04.026Z,28.87
2019-04-05T15:58:34.056Z,27.42
2019-04-05T16:01:04.470Z,26.95
2019-04-05T16:03:36.871Z,26.45
2019-04-05T16:06:05.872Z,28.30
2019-04-05T16:08:35.603Z,26.85
2019-04-05T16:11:05.527Z,26.77
2019-04-05T16:13:35.230Z,26.42
2019-04-05T16:16:04.705Z,25.82
2019-04-05T16:18:34.160Z,25.85
2019-04-05T16:21:03.622Z,25.62
2019-04-05T16:23:33.087Z,24.32
2019-04-05T16:26:02.634Z,24.43
2019-04-05T16:28:32.193Z,23.80
2019-04-05T16:31:01.948Z,25.32
2019-04-05T16:33:31.397Z,26.80
2019-04-05T16:36:05.454Z,27.27
2019-04-05T16:38:29.700Z,26.47
2019-04-05T16:40:59.179Z,24.67
2019-04-05T16:43:28.644Z,23.70
2019-04-05T16:45:58.123Z,24.37
2019-04-05T16:48:27.613Z,24.07
2019-04-05T16:51:00.029Z,22.77
2019-04-05T16:53:30.647Z,22.73
2019-04-05T16:56:00.420Z,22.73
2019-04-05T16:58:36.208Z,21.67
2019-04-05T17:01:05.867Z,23.83
2019-04-05T17:03:35.417Z,22.53
2019-04-05T17:06:04.874Z,22.30
2019-04-05T17:08:34.336Z,22.40
2019-04-05T17:11:03.814Z,22.07
2019-04-05T17:13:33.286Z,31.27
2019-04-05T17:16:02.743Z,32.83
2019-04-05T17:18:32.206Z,36.40
2019-04-05T17:21:01.688Z,37.47
2019-04-05T17:23:33.155Z,34.80
2019-04-05T17:26:02.289Z,32.17
2019-04-05T17:28:31.758Z,28.73
2019-04-05T17:31:01.536Z,31.30
2019-04-05T17:33:31.027Z,29.23
2019-04-05T17:36:07.394Z,32.00
2019-04-05T17:38:36.851Z,33.97
2019-04-05T17:41:06.467Z,34.80
2019-04-05T17:43:38.653Z,34.17
2019-04-05T17:46:08.404Z,33.27
2019-04-05T17:48:37.868Z,37.27
2019-04-05T17:51:07.430Z,35.07
2019-04-05T17:53:36.884Z,33.07
2019-04-05T17:56:06.359Z,38.73
2019-04-05T17:58:37.208Z,41.50
2019-04-05T18:01:06.765Z,35.77
2019-04-05T18:03:36.232Z,33.03
2019-04-05T18:06:05.748Z,33.23
2019-04-05T18:08:35.206Z,32.63
2019-04-05T18:11:06.117Z,32.77
2019-04-05T18:13:53.128Z,30.67
2019-04-05T18:16:40.866Z,29.17
2019-04-05T18:19:09.804Z,31.70
2019-04-05T18:21:38.750Z,29.40
2019-04-05T18:24:07.936Z,35.10
2019-04-05T18:26:36.884Z,36.07
2019-04-05T18:29:06.467Z,42.03
2019-04-05T18:31:35.888Z,38.27
2019-04-05T18:34:05.611Z,38.63
2019-04-05T18:36:35.074Z,36.40
2019-04-05T18:39:07.330Z,32.93
2019-04-05T18:41:36.797Z,27.17
2019-04-05T18:44:06.261Z,33.37
2019-04-05T18:46:35.713Z,32.47
2019-04-05T18:49:05.188Z,31.90
2019-04-05T18:51:34.975Z,31.67
2019-04-05T18:54:04.585Z,30.17
2019-04-05T18:56:34.037Z,28.07
2019-04-05T18:59:03.516Z,24.10
2019-04-05T19:01:32.998Z,23.90
2019-04-05T19:04:05.341Z,24.90
2019-04-05T19:06:33.883Z,24.07
2019-04-05T19:09:05.017Z,23.50
2019-04-05T19:11:34.480Z,26.07
2019-04-05T19:14:03.954Z,26.37
2019-04-05T19:16:33.415Z,32.20
2019-04-05T19:19:03.053Z,27.07
2019-04-05T19:21:32.539Z,24.27
2019-04-05T19:24:02.041Z,36.87
2019-04-05T19:26:31.494Z,33.37
2019-04-05T19:29:01.006Z,34.63
2019-04-05T19:49:12.211Z,21.47
2019-04-05T19:51:41.675Z,18.03
2019-04-05T19:54:11.151Z,19.50
2019-04-05T19:56:40.600Z,15.87
2019-04-05T19:59:10.053Z,15.63
2019-04-05T20:01:39.522Z,18.03
2019-04-05T20:04:09.006Z,17.33
2019-04-05T20:06:38.476Z,17.70
2019-04-05T20:09:08.003Z,17.10
2019-04-05T20:11:37.473Z,16.60
2019-04-05T20:14:06.957Z,16.80
2019-04-05T20:16:36.440Z,16.23
2019-04-05T20:19:05.918Z,16.70
2019-04-05T20:21:35.375Z,17.00
2019-04-05T20:24:13.788Z,17.73
2019-04-05T20:26:36.938Z,16.90
2019-04-05T20:29:06.660Z,17.13
2019-04-05T20:31:36.131Z,16.73
2019-04-05T20:34:05.894Z,16.90
2019-04-05T20:36:35.349Z,17.63
2019-04-05T20:39:07.055Z,18.40
2019-04-05T20:41:36.538Z,18.93
2019-04-05T20:44:06.007Z,19.03
2019-04-05T20:46:35.750Z,17.10
2019-04-05T20:49:05.465Z,20.50
2019-04-05T20:51:35.269Z,18.70
2019-04-05T20:54:04.900Z,18.07
2019-04-05T20:56:34.357Z,18.20
2019-04-05T20:59:03.838Z,18.10
2019-04-05T21:01:33.293Z,18.83
2019-04-05T21:04:02.753Z,16.97
2019-04-05T21:06:32.219Z,18.20
2019-04-05T21:09:04.479Z,16.87
2019-04-05T21:11:36.145Z,17.90
2019-04-05T21:14:05.600Z,17.37
2019-04-05T21:16:35.564Z,16.17
2019-04-05T21:19:05.183Z,16.43
2019-04-05T21:21:34.718Z,16.60
2019-04-05T21:24:04.157Z,16.77
2019-04-05T21:26:33.612Z,16.47
2019-04-05T21:29:03.090Z,16.27
2019-04-05T21:31:32.575Z,17.30
2019-04-05T21:34:02.048Z,19.07
2019-04-05T21:36:31.504Z,17.43
2019-04-05T21:39:00.957Z,18.33
2019-04-05T21:41:30.411Z,20.83
2019-04-05T21:43:59.894Z,20.13
2019-04-05T21:46:29.362Z,21.23
2019-04-05T21:48:58.867Z,17.03
2019-04-05T21:51:28.309Z,16.73
2019-04-05T21:53:57.781Z,16.97
2019-04-05T21:56:27.246Z,17.40
2019-04-05T21:58:56.721Z,18.93
2019-04-05T22:01:26.940Z,18.53
2019-04-05T22:03:56.990Z,18.87
2019-04-05T22:06:26.922Z,18.80
2019-04-05T22:08:56.474Z,20.50
2019-04-05T22:11:27.721Z,20.47
2019-04-05T22:13:57.079Z,20.27
2019-04-05T22:16:26.547Z,19.93
2019-04-05T22:18:56.037Z,22.07
2019-04-05T22:21:25.777Z,22.53
2019-04-05T22:23:55.255Z,21.37
2019-04-05T22:26:24.696Z,24.33
2019-04-05T22:28:54.171Z,20.83
2019-04-05T22:31:23.640Z,21.57
2019-04-05T22:33:53.159Z,21.80
2019-04-05T22:36:22.630Z,23.30
2019-04-05T22:38:52.088Z,25.47
2019-04-05T22:41:21.560Z,28.00
2019-04-05T22:43:51.007Z,30.43
2019-04-05T22:46:20.455Z,30.77
2019-04-05T22:48:49.898Z,30.77
2019-04-05T22:51:19.352Z,30.40
2019-04-05T22:53:48.809Z,34.70
2019-04-05T22:56:18.258Z,31.17
2019-04-05T22:58:47.712Z,30.47
2019-04-05T23:01:17.163Z,31.00
2019-04-05T23:03:46.778Z,32.13
2019-04-05T23:06:16.522Z,30.73
2019-04-05T23:08:45.963Z,28.60
2019-04-05T23:11:15.462Z,26.10
2019-04-05T23:13:44.899Z,25.90
2019-04-05T23:16:14.372Z,24.47
2019-04-05T23:18:43.811Z,23.93
2019-04-05T23:21:13.275Z,25.37
2019-04-05T23:23:42.714Z,25.20
2019-04-05T23:26:12.195Z,24.20
2019-04-05T23:28:41.673Z,24.07
2019-04-05T23:31:11.298Z,23.30
2019-04-05T23:33:40.845Z,23.93
2019-04-05T23:36:10.315Z,24.10
2019-04-05T23:38:39.825Z,23.63
2019-04-05T23:41:09.234Z,23.83
2019-04-05T23:43:38.933Z,23.33
2019-04-05T23:46:08.390Z,25.43
2019-04-05T23:48:37.831Z,25.37
2019-04-05T23:51:07.355Z,25.07
2019-04-05T23:53:36.812Z,25.93
2019-04-05T23:56:06.290Z,26.33
2019-04-05T23:58:35.724Z,27.57
